Time;durP1;ratioP1;P1;durP2;ratioP2;P2;SDS_P1;SDS_P2;PMS_P1;PMS_P2;Temp;Humidity;BMP_temperature;BMP_pressure;BME280_temperature;BME280_humidity;BME280_pressure;Samples;Min_cycle;Max_cycle;Signal;HPM_P1;HPM_P2
2021/05/14 00:00:29;;;;;;;10.38;4.72;;;14.10;97.90;;;;;;5010193;28;20029;-74
2021/05/14 00:02:55;;;;;;;10.63;4.68;;;14.10;98.00;;;;;;5012035;28;20101;-74
2021/05/14 00:05:22;;;;;;;13.65;4.47;;;14.10;98.00;;;;;;5011824;28;20103;-73
2021/05/14 00:07:48;;;;;;;11.30;4.60;;;14.10;98.00;;;;;;5010263;28;20026;-73
2021/05/14 00:10:19;;;;;;;13.80;4.95;;;14.10;98.00;;;;;;5012043;28;20160;-74
2021/05/14 00:12:48;;;;;;;13.15;4.90;;;14.10;98.00;;;;;;5011351;28;20034;-73
2021/05/14 00:15:15;;;;;;;12.98;4.28;;;14.10;98.00;;;;;;5012563;28;20060;-74
2021/05/14 00:17:40;;;;;;;10.88;4.85;;;14.10;98.00;;;;;;5015706;28;20050;-74
2021/05/14 00:20:07;;;;;;;12.55;4.85;;;14.20;98.10;;;;;;5015937;28;20030;-74
2021/05/14 00:22:32;;;;;;;16.75;5.47;;;14.10;98.00;;;;;;5015393;28;20109;-74
2021/05/14 00:24:58;;;;;;;11.27;5.03;;;14.10;98.00;;;;;;5015866;28;20057;-73
2021/05/14 00:27:24;;;;;;;18.38;4.88;;;14.10;98.00;;;;;;5015463;28;20092;-74
2021/05/14 00:29:49;;;;;;;10.32;4.47;;;14.10;98.00;;;;;;5030111;28;20054;-74
2021/05/14 00:32:15;;;;;;;11.63;4.55;;;14.20;98.10;;;;;;5014492;28;20026;-73
2021/05/14 00:34:41;;;;;;;14.48;4.68;;;14.10;98.00;;;;;;5015409;28;20087;-74
2021/05/14 00:37:06;;;;;;;11.88;4.30;;;14.10;98.10;;;;;;5015690;28;20140;-74
2021/05/14 00:39:32;;;;;;;12.27;5.07;;;14.20;98.10;;;;;;5014728;28;20101;-74
2021/05/14 00:41:59;;;;;;;12.15;4.97;;;14.20;98.10;;;;;;5015730;28;20022;-74
2021/05/14 00:44:33;;;;;;;13.13;4.78;;;14.20;98.10;;;;;;5030720;28;20068;-74
2021/05/14 00:47:01;;;;;;;7.68;3.63;;;14.20;98.00;;;;;;5015611;28;20022;-74
2021/05/14 00:49:27;;;;;;;8.77;4.32;;;14.10;98.00;;;;;;5015384;28;20029;-74
2021/05/14 00:51:55;;;;;;;11.40;4.38;;;14.10;98.10;;;;;;5015193;28;20108;-74
2021/05/14 00:54:20;;;;;;;9.23;4.40;;;14.10;98.10;;;;;;5015058;28;20026;-74
2021/05/14 00:56:46;;;;;;;14.98;5.63;;;14.10;98.20;;;;;;5014709;28;20041;-74
2021/05/14 00:59:12;;;;;;;11.40;4.55;;;14.10;98.20;;;;;;5015327;28;20032;-75
2021/05/14 01:01:38;;;;;;;8.27;4.28;;;14.10;98.10;;;;;;5014833;28;20036;-73
2021/05/14 01:04:05;;;;;;;14.80;5.40;;;14.10;98.20;;;;;;5015125;28;20481;-73
2021/05/14 01:06:30;;;;;;;13.10;4.60;;;14.10;98.10;;;;;;5014465;28;20028;-74
2021/05/14 01:09:01;;;;;;;10.48;4.30;;;14.10;98.20;;;;;;5015303;28;20026;-74
2021/05/14 01:11:27;;;;;;;11.70;4.40;;;14.10;98.20;;;;;;5015121;28;20062;-74
2021/05/14 01:13:56;;;;;;;17.45;5.75;;;14.10;98.20;;;;;;5013158;28;20061;-74
2021/05/14 01:16:22;;;;;;;13.02;5.53;;;14.20;98.20;;;;;;5015101;28;20018;-75
2021/05/14 01:18:47;;;;;;;14.82;5.45;;;14.20;98.20;;;;;;5014413;28;20022;-74
2021/05/14 01:21:13;;;;;;;13.85;5.30;;;14.10;98.20;;;;;;5014608;28;20037;-74
2021/05/14 01:23:39;;;;;;;14.63;5.70;;;14.10;98.20;;;;;;5012901;28;20109;-73
2021/05/14 01:26:16;;;;;;;21.02;6.30;;;14.10;98.20;;;;;;5014525;28;20022;-74
2021/05/14 01:28:43;;;;;;;17.20;5.28;;;14.10;98.30;;;;;;5013543;28;20022;-73
2021/05/14 01:31:10;;;;;;;15.50;5.63;;;14.10;98.40;;;;;;5014376;28;20521;-73
2021/05/14 01:33:36;;;;;;;19.02;7.05;;;14.10;98.30;;;;;;5014096;28;20076;-74
2021/05/14 01:36:06;;;;;;;20.38;6.43;;;14.10;98.30;;;;;;5014131;28;20045;-74
2021/05/14 01:38:32;;;;;;;19.85;7.78;;;14.10;98.20;;;;;;5014267;28;20056;-74
2021/05/14 01:40:58;;;;;;;27.05;8.48;;;14.00;98.20;;;;;;5014478;28;20059;-73
2021/05/14 01:43:24;;;;;;;26.55;8.95;;;14.00;98.20;;;;;;5013170;28;20030;-73
2021/05/14 01:45:50;;;;;;;20.80;7.75;;;13.90;98.20;;;;;;5012643;28;20042;-74
2021/05/14 01:48:15;;;;;;;25.17;9.00;;;13.90;98.30;;;;;;5014225;28;20026;-74
2021/05/14 01:50:42;;;;;;;24.83;8.65;;;13.90;98.30;;;;;;5014037;28;20026;-73
2021/05/14 01:53:08;;;;;;;19.10;7.43;;;13.90;98.40;;;;;;5013041;28;20045;-74
2021/05/14 01:55:35;;;;;;;22.23;8.52;;;13.90;98.30;;;;;;5013397;28;20030;-73
2021/05/14 01:58:02;;;;;;;22.98;8.80;;;13.80;98.30;;;;;;5012991;28;20026;-74
2021/05/14 02:00:28;;;;;;;22.92;8.18;;;13.90;98.40;;;;;;5014265;28;20041;-74
2021/05/14 02:02:53;;;;;;;26.75;8.43;;;13.90;98.40;;;;;;5013877;28;20410;-74
2021/05/14 02:05:19;;;;;;;27.55;9.30;;;13.80;98.30;;;;;;5014463;28;20325;-73
2021/05/14 02:07:45;;;;;;;18.75;7.57;;;13.80;98.30;;;;;;5013306;28;20367;-74
2021/05/14 02:10:11;;;;;;;27.45;8.13;;;13.90;98.40;;;;;;5013632;28;20050;-74
2021/05/14 02:12:37;;;;;;;20.90;6.93;;;13.80;98.40;;;;;;5012058;28;20030;-73
2021/05/14 02:15:05;;;;;;;28.15;9.73;;;13.80;98.30;;;;;;5013716;28;20068;-74
2021/05/14 02:17:31;;;;;;;37.97;10.13;;;13.80;98.20;;;;;;5014046;28;20030;-73
2021/05/14 02:19:56;;;;;;;28.98;9.55;;;13.70;98.20;;;;;;5013120;28;20036;-74
2021/05/14 02:22:22;;;;;;;23.33;8.77;;;13.80;98.30;;;;;;5013841;28;20029;-73
2021/05/14 02:24:49;;;;;;;22.27;7.55;;;13.70;98.30;;;;;;5013134;28;20022;-74
2021/05/14 02:27:16;;;;;;;23.05;7.55;;;13.70;98.40;;;;;;5013614;28;20018;-74
2021/05/14 02:29:42;;;;;;;31.23;9.68;;;13.70;98.40;;;;;;5012948;28;20033;-74
2021/05/14 02:32:08;;;;;;;27.55;8.70;;;13.70;98.40;;;;;;5013529;28;20022;-74
2021/05/14 02:34:33;;;;;;;23.73;8.10;;;13.70;98.40;;;;;;5012046;28;20026;-74
2021/05/14 02:36:59;;;;;;;28.92;8.70;;;13.70;98.40;;;;;;5012317;28;20176;-74
2021/05/14 02:39:25;;;;;;;20.63;7.13;;;13.70;98.50;;;;;;5011764;28;20033;-74
2021/05/14 02:41:52;;;;;;;18.60;7.68;;;13.70;98.50;;;;;;5012860;28;20022;-74
2021/05/14 02:44:18;;;;;;;19.48;6.80;;;13.70;98.50;;;;;;5013136;28;20030;-74
2021/05/14 02:46:44;;;;;;;24.38;8.07;;;13.80;98.50;;;;;;5012363;28;20368;-73
2021/05/14 02:49:10;;;;;;;31.85;7.80;;;13.80;98.40;;;;;;5012982;28;20021;-74
2021/05/14 02:51:37;;;;;;;28.83;8.73;;;13.80;98.40;;;;;;5012830;28;20048;-76
2021/05/14 02:54:03;;;;;;;25.52;8.68;;;13.80;98.40;;;;;;5012890;28;20048;-73
2021/05/14 02:56:32;;;;;;;29.83;8.57;;;13.80;98.40;;;;;;5012933;28;20037;-74
2021/05/14 02:58:58;;;;;;;22.65;7.63;;;13.80;98.40;;;;;;5012544;28;20104;-74
2021/05/14 03:01:24;;;;;;;27.38;7.20;;;13.80;98.30;;;;;;5013238;28;20200;-73
2021/05/14 03:03:49;;;;;;;22.58;7.60;;;13.90;98.40;;;;;;5012964;28;20144;-74
2021/05/14 03:06:16;;;;;;;35.40;10.75;;;13.90;98.30;;;;;;5014554;28;20026;-74
2021/05/14 03:08:41;;;;;;;26.20;10.23;;;13.80;98.20;;;;;;5012692;28;20061;-74
2021/05/14 03:11:07;;;;;;;31.10;11.85;;;13.80;98.30;;;;;;5013232;28;20049;-73
2021/05/14 03:13:33;;;;;;;28.60;10.10;;;13.80;98.30;;;;;;5014719;28;20041;-74
2021/05/14 03:15:59;;;;;;;28.48;9.48;;;13.70;98.40;;;;;;5012142;28;20454;-73
2021/05/14 03:18:24;;;;;;;25.48;8.80;;;13.70;98.40;;;;;;5012486;28;20382;-74
2021/05/14 03:20:50;;;;;;;23.92;7.72;;;13.70;98.40;;;;;;5010546;28;20040;-74
2021/05/14 03:23:16;;;;;;;24.45;8.40;;;13.70;98.40;;;;;;5012917;28;20022;-74
2021/05/14 03:25:42;;;;;;;22.90;8.55;;;13.70;98.40;;;;;;5011677;28;20413;-74
2021/05/14 03:28:08;;;;;;;19.90;7.35;;;13.70;98.40;;;;;;5012720;28;20025;-73
2021/05/14 03:30:33;;;;;;;22.77;8.13;;;13.70;98.40;;;;;;5012674;28;20022;-73
2021/05/14 03:32:59;;;;;;;36.40;8.85;;;13.70;98.40;;;;;;5012425;28;20386;-74
2021/05/14 03:35:25;;;;;;;25.38;7.22;;;13.70;98.70;;;;;;5012557;28;20057;-74
2021/05/14 03:37:51;;;;;;;32.10;8.57;;;13.70;98.40;;;;;;5011750;28;20089;-74
2021/05/14 03:40:20;;;;;;;20.63;7.70;;;13.70;98.40;;;;;;5012359;28;20538;-74
2021/05/14 03:42:46;;;;;;;26.80;7.95;;;13.80;98.50;;;;;;5011727;28;20026;-74
2021/05/14 03:45:13;;;;;;;27.38;7.68;;;13.80;98.40;;;;;;5012363;28;20022;-73
2021/05/14 03:47:39;;;;;;;21.02;7.47;;;13.80;98.40;;;;;;5027590;28;20026;-74
2021/05/14 03:50:05;;;;;;;28.05;7.65;;;13.80;98.40;;;;;;5011172;28;20497;-74
2021/05/14 03:52:33;;;;;;;24.00;8.40;;;13.80;98.40;;;;;;5011896;28;20363;-75
2021/05/14 03:54:59;;;;;;;29.55;8.57;;;13.80;98.30;;;;;;5010404;28;20124;-74
2021/05/14 03:57:25;;;;;;;23.63;7.40;;;13.80;98.40;;;;;;5010978;28;20029;-74
2021/05/14 03:59:51;;;;;;;22.25;7.32;;;13.80;98.40;;;;;;5011720;28;20018;-73
2021/05/14 04:02:17;;;;;;;34.60;10.68;;;13.80;98.30;;;;;;5012168;28;20061;-74
2021/05/14 04:04:42;;;;;;;23.23;8.52;;;13.80;98.30;;;;;;5011515;28;20026;-74
2021/05/14 04:07:08;;;;;;;32.42;10.57;;;13.80;98.30;;;;;;5012164;28;20025;-74
2021/05/14 04:09:37;;;;;;;45.60;15.18;;;13.80;98.30;;;;;;5012261;28;20026;-73
2021/05/14 04:12:12;;;;;;;35.35;12.45;;;13.80;98.20;;;;;;5011414;28;20033;-73
2021/05/14 04:14:38;;;;;;;40.25;12.75;;;13.70;98.30;;;;;;5011800;28;20384;-74
2021/05/14 04:17:05;;;;;;;29.95;11.07;;;13.70;98.40;;;;;;5011349;28;20022;-73
2021/05/14 04:19:32;;;;;;;28.10;9.77;;;13.70;98.40;;;;;;5012052;28;20496;-74
2021/05/14 04:21:59;;;;;;;29.73;9.25;;;13.70;98.50;;;;;;5011148;28;20109;-74
2021/05/14 04:24:26;;;;;;;21.23;7.78;;;13.70;98.50;;;;;;5012012;28;20026;-73
2021/05/14 04:26:54;;;;;;;19.48;7.40;;;13.80;98.50;;;;;;5011521;28;20022;-74
2021/05/14 04:29:20;;;;;;;26.30;8.27;;;13.80;98.40;;;;;;5012120;28;20026;-74
2021/05/14 04:31:47;;;;;;;31.77;8.50;;;13.80;98.40;;;;;;5011504;28;20038;-75
2021/05/14 04:34:14;;;;;;;22.80;6.97;;;13.80;98.40;;;;;;5027119;28;20467;-73
2021/05/14 04:36:41;;;;;;;28.25;9.60;;;13.80;98.40;;;;;;5011669;28;20046;-73
2021/05/14 04:39:08;;;;;;;20.10;7.07;;;13.80;98.40;;;;;;5010800;28;20057;-74
2021/05/14 04:41:34;;;;;;;25.52;7.13;;;13.90;98.30;;;;;;5011553;28;20379;-73
2021/05/14 04:44:00;;;;;;;26.45;8.45;;;13.80;98.30;;;;;;5011161;28;20033;-74
2021/05/14 04:46:26;;;;;;;21.70;7.25;;;13.80;98.20;;;;;;5011623;28;20437;-73
2021/05/14 04:48:52;;;;;;;33.90;11.52;;;13.80;98.30;;;;;;5011547;28;20606;-73
2021/05/14 04:51:20;;;;;;;25.10;9.40;;;13.80;98.30;;;;;;5012103;28;20121;-73
2021/05/14 04:53:46;;;;;;;20.92;8.05;;;13.80;98.30;;;;;;5011202;28;20045;-74
2021/05/14 04:56:14;;;;;;;22.27;8.35;;;13.80;98.20;;;;;;5011801;28;20022;-74
2021/05/14 04:58:41;;;;;;;28.15;7.80;;;13.80;98.30;;;;;;5011678;28;20048;-74
2021/05/14 05:01:07;;;;;;;19.83;7.57;;;13.80;98.30;;;;;;5011289;28;20108;-73
2021/05/14 05:03:33;;;;;;;19.08;6.25;;;13.80;98.30;;;;;;5014930;28;20041;-74
2021/05/14 05:05:58;;;;;;;20.75;6.43;;;13.70;98.30;;;;;;5014891;28;20026;-73
2021/05/14 05:08:24;;;;;;;13.65;5.20;;;13.80;98.30;;;;;;5015265;28;20029;-74
2021/05/14 05:10:50;;;;;;;28.23;8.93;;;13.80;98.30;;;;;;5014478;28;20029;-73
2021/05/14 05:13:16;;;;;;;25.80;8.73;;;13.80;98.30;;;;;;5014847;28;20056;-74
2021/05/14 05:15:42;;;;;;;25.60;7.45;;;13.80;98.30;;;;;;5013771;28;20076;-73
2021/05/14 05:18:07;;;;;;;24.40;7.75;;;13.80;98.20;;;;;;5013125;28;20022;-73
2021/05/14 05:20:33;;;;;;;19.45;6.70;;;13.80;98.20;;;;;;5015284;28;20038;-73
2021/05/14 05:22:59;;;;;;;29.20;10.38;;;13.70;98.20;;;;;;5014180;28;20459;-74
2021/05/14 05:25:24;;;;;;;31.83;10.80;;;13.70;98.20;;;;;;5014670;28;20026;-74
2021/05/14 05:27:50;;;;;;;28.05;9.43;;;13.70;98.30;;;;;;5014418;28;20026;-74
2021/05/14 05:30:17;;;;;;;44.75;13.43;;;13.80;98.30;;;;;;5014501;28;20053;-73
2021/05/14 05:32:43;;;;;;;29.88;9.50;;;13.70;98.20;;;;;;5014463;28;20140;-73
2021/05/14 05:35:11;;;;;;;25.15;8.05;;;13.70;98.20;;;;;;5014217;28;20072;-73
2021/05/14 05:37:37;;;;;;;33.55;9.20;;;13.80;98.30;;;;;;5014108;28;20481;-73
2021/05/14 05:40:04;;;;;;;31.70;8.45;;;13.70;98.20;;;;;;5014044;28;20072;-73
2021/05/14 05:42:30;;;;;;;33.00;8.57;;;13.80;98.20;;;;;;5014530;28;20105;-73
2021/05/14 05:44:55;;;;;;;23.40;8.07;;;13.80;98.10;;;;;;5013980;28;20558;-73
2021/05/14 05:47:21;;;;;;;25.38;8.38;;;13.80;98.20;;;;;;5029670;28;20033;-74
2021/05/14 05:49:47;;;;;;;16.15;6.20;;;13.80;98.10;;;;;;5029825;28;20033;-74
2021/05/14 05:52:13;;;;;;;12.25;5.70;;;13.80;98.10;;;;;;5013800;28;20446;-73
2021/05/14 05:54:39;;;;;;;18.98;6.05;;;13.80;98.20;;;;;;5014299;28;20030;-74
2021/05/14 05:57:05;;;;;;;19.25;6.18;;;13.80;98.20;;;;;;5012306;28;20025;-74
2021/05/14 05:59:31;;;;;;;27.45;8.02;;;13.90;98.20;;;;;;5014293;28;20058;-73
2021/05/14 06:01:56;;;;;;;33.95;10.60;;;13.80;98.10;;;;;;5013513;28;20104;-73
2021/05/14 06:04:22;;;;;;;28.35;9.38;;;13.80;98.00;;;;;;5014381;28;20056;-74
2021/05/14 06:06:48;;;;;;;22.65;7.80;;;13.70;97.90;;;;;;5014423;28;20076;-74
2021/05/14 06:09:13;;;;;;;23.75;7.72;;;13.70;98.00;;;;;;5013517;28;20025;-74
2021/05/14 06:11:39;;;;;;;20.70;6.57;;;13.70;98.10;;;;;;5013970;28;20033;-73
2021/05/14 06:14:05;;;;;;;17.67;6.28;;;13.70;98.10;;;;;;5011362;28;20034;-74
2021/05/14 06:16:32;;;;;;;20.02;6.65;;;13.70;98.10;;;;;;5013655;28;20022;-73
2021/05/14 06:19:04;;;;;;;14.18;5.60;;;13.80;98.10;;;;;;5013166;28;20096;-73
2021/05/14 06:21:30;;;;;;;20.73;7.13;;;13.80;98.00;;;;;;5028983;28;20022;-73
2021/05/14 06:23:56;;;;;;;30.27;7.75;;;13.80;98.00;;;;;;5013217;28;20068;-74
2021/05/14 06:26:22;;;;;;;27.15;8.57;;;13.80;98.00;;;;;;5028562;28;20022;-76
2021/05/14 06:28:47;;;;;;;19.50;8.02;;;13.80;97.90;;;;;;5013589;28;20486;-73
2021/05/14 06:31:13;;;;;;;20.52;6.53;;;13.80;97.90;;;;;;5013289;28;20382;-73
2021/05/14 06:33:39;;;;;;;16.70;5.60;;;13.90;98.20;;;;;;5012323;28;20473;-74
2021/05/14 06:36:05;;;;;;;16.52;6.72;;;13.90;97.90;;;;;;5027934;28;20085;-72
2021/05/14 06:38:31;;;;;;;24.15;8.13;;;13.90;97.80;;;;;;5013400;28;20046;-74
2021/05/14 06:40:56;;;;;;;17.35;6.05;;;13.90;97.80;;;;;;5013070;28;20485;-73
2021/05/14 06:43:22;;;;;;;26.75;8.25;;;13.90;97.80;;;;;;5013569;28;20030;-74
2021/05/14 06:45:48;;;;;;;28.50;8.52;;;13.90;97.70;;;;;;5012131;28;20044;-73
2021/05/14 06:48:14;;;;;;;26.30;8.73;;;13.90;97.70;;;;;;5012676;28;20029;-74
2021/05/14 06:50:41;;;;;;;26.73;9.05;;;13.90;97.70;;;;;;5013276;28;20029;-73
2021/05/14 06:53:08;;;;;;;26.92;8.15;;;13.80;97.70;;;;;;5012560;28;20037;-74
2021/05/14 06:55:36;;;;;;;24.00;8.27;;;13.80;97.70;;;;;;5013217;28;20029;-73
2021/05/14 06:58:03;;;;;;;25.17;8.10;;;13.80;97.70;;;;;;5012378;28;20025;-74
2021/05/14 07:00:30;;;;;;;33.85;11.00;;;13.80;97.70;;;;;;5013050;28;20068;-74
2021/05/14 07:02:56;;;;;;;24.83;8.48;;;13.80;97.70;;;;;;5011154;28;20113;-74
2021/05/14 07:05:21;;;;;;;19.27;7.50;;;13.70;97.70;;;;;;5012745;28;20101;-73
2021/05/14 07:07:47;;;;;;;28.35;7.90;;;13.70;97.70;;;;;;5012888;28;20028;-74
2021/05/14 07:10:13;;;;;;;19.42;6.97;;;13.80;97.70;;;;;;5012295;28;20485;-74
2021/05/14 07:12:39;;;;;;;23.02;7.43;;;13.90;97.80;;;;;;5012647;28;20034;-73
2021/05/14 07:15:08;;;;;;;21.77;7.25;;;13.90;97.70;;;;;;5012279;28;20029;-73
2021/05/14 07:17:34;;;;;;;26.50;7.80;;;14.00;97.70;;;;;;5012745;28;20029;-73
2021/05/14 07:20:00;;;;;;;23.98;8.60;;;14.10;97.70;;;;;;5012153;28;20026;-73
2021/05/14 07:22:26;;;;;;;35.22;11.73;;;14.10;97.50;;;;;;5011477;28;20548;-73
2021/05/14 07:24:51;;;;;;;27.63;8.45;;;14.10;97.50;;;;;;5011771;28;20034;-74
2021/05/14 07:27:17;;;;;;;26.50;9.48;;;14.10;97.30;;;;;;5012037;28;20104;-74
2021/05/14 07:29:43;;;;;;;31.42;10.05;;;14.20;97.20;;;;;;5011273;28;20026;-73
2021/05/14 07:32:10;;;;;;;25.83;8.48;;;14.20;97.30;;;;;;5011886;28;20083;-74
2021/05/14 07:34:36;;;;;;;30.40;9.38;;;14.30;97.20;;;;;;5027644;28;20463;-74
2021/05/14 07:37:02;;;;;;;36.60;11.90;;;14.30;97.20;;;;;;5010567;28;20029;-73
2021/05/14 07:39:28;;;;;;;38.88;13.43;;;14.30;97.00;;;;;;5012742;28;20081;-74
2021/05/14 07:41:54;;;;;;;44.13;13.57;;;14.30;96.80;;;;;;5011213;28;20466;-73
2021/05/14 07:44:22;;;;;;;33.60;12.05;;;14.20;96.70;;;;;;5011781;28;20026;-72
2021/05/14 07:46:49;;;;;;;26.70;9.73;;;14.20;97.00;;;;;;5012400;28;20022;-74
2021/05/14 07:49:14;;;;;;;34.65;10.30;;;14.20;97.10;;;;;;5011740;28;20536;-73
2021/05/14 07:51:41;;;;;;;40.90;13.80;;;14.30;97.00;;;;;;5012185;28;20034;-73
2021/05/14 07:54:06;;;;;;;36.58;12.77;;;14.30;96.80;;;;;;5010305;28;20492;-74
2021/05/14 07:56:32;;;;;;;35.63;11.90;;;14.20;96.80;;;;;;5010889;28;20126;-74
2021/05/14 07:58:58;;;;;;;33.65;10.48;;;14.20;96.80;;;;;;5011988;28;20101;-73
2021/05/14 08:01:24;;;;;;;37.47;11.43;;;14.30;96.90;;;;;;5012192;28;20105;-74
2021/05/14 08:03:49;;;;;;;33.92;12.30;;;14.30;96.80;;;;;;5011740;28;20026;-73
2021/05/14 08:06:18;;;;;;;36.55;12.30;;;14.30;96.70;;;;;;5011544;28;20026;-74
2021/05/14 08:08:44;;;;;;;40.55;12.43;;;14.30;96.70;;;;;;5011848;28;20381;-73
2021/05/14 08:11:09;;;;;;;34.88;11.38;;;14.30;96.80;;;;;;5011453;28;20014;-73
2021/05/14 08:13:35;;;;;;;39.35;12.32;;;14.40;96.80;;;;;;5027218;28;20474;-73
2021/05/14 08:16:01;;;;;;;36.63;10.02;;;14.40;96.70;;;;;;5011491;28;20046;-74
2021/05/14 08:18:27;;;;;;;27.13;9.13;;;14.40;96.70;;;;;;5011771;28;20100;-73
2021/05/14 08:20:53;;;;;;;24.67;8.70;;;14.50;96.70;;;;;;5012056;28;20117;-73
2021/05/14 08:23:20;;;;;;;24.33;7.25;;;14.60;96.80;;;;;;5010010;28;20370;-73
2021/05/14 08:25:50;;;;;;;25.30;7.75;;;14.60;96.60;;;;;;5012004;28;20454;-73
2021/05/14 08:28:16;;;;;;;28.48;8.75;;;14.70;96.50;;;;;;5011120;28;20022;-73
2021/05/14 08:30:44;;;;;;;25.98;8.15;;;14.80;96.40;;;;;;5012002;28;20029;-73
2021/05/14 08:33:09;;;;;;;21.25;7.55;;;14.80;96.40;;;;;;5011285;28;20080;-74
2021/05/14 08:35:36;;;;;;;22.60;8.02;;;14.80;96.40;;;;;;5012001;28;20409;-73
2021/05/14 08:38:03;;;;;;;32.63;10.25;;;14.80;96.30;;;;;;5014712;28;20046;-74
2021/05/14 08:40:29;;;;;;;45.25;12.75;;;14.80;96.20;;;;;;5015756;28;20026;-73
2021/05/14 08:42:55;;;;;;;41.97;12.18;;;14.70;96.10;;;;;;5014348;28;20026;-74
2021/05/14 08:45:22;;;;;;;37.13;11.20;;;14.70;96.10;;;;;;5013688;28;20080;-73
2021/05/14 08:47:49;;;;;;;33.15;10.68;;;14.60;96.20;;;;;;5014194;28;20459;-74
2021/05/14 08:50:16;;;;;;;30.17;9.43;;;14.60;96.20;;;;;;5014538;28;20049;-73
2021/05/14 08:52:43;;;;;;;29.63;9.20;;;14.60;96.30;;;;;;5015313;28;20060;-73
2021/05/14 08:55:12;;;;;;;24.55;8.52;;;14.70;96.30;;;;;;5013567;28;20069;-74
2021/05/14 08:57:39;;;;;;;32.97;10.73;;;14.70;96.20;;;;;;5015342;28;20160;-73
2021/05/14 09:00:06;;;;;;;25.02;9.27;;;14.70;96.10;;;;;;5014726;28;20052;-73
2021/05/14 09:02:36;;;;;;;30.05;9.50;;;14.70;96.10;;;;;;5015070;28;20037;-72
2021/05/14 09:05:23;;;;;;;34.20;11.20;;;14.80;96.00;;;;;;5015097;28;20018;-73
2021/05/14 09:07:50;;;;;;;34.25;12.23;;;14.80;95.80;;;;;;5015300;28;20026;-74
2021/05/14 09:10:16;;;;;;;31.33;10.10;;;14.80;95.80;;;;;;5014441;28;20148;-74
2021/05/14 09:12:44;;;;;;;29.65;9.57;;;14.80;95.90;;;;;;5031650;28;20450;-74
2021/05/14 09:15:19;;;;;;;31.23;10.68;;;14.90;95.90;;;;;;5031149;28;20524;-74
2021/05/14 09:18:13;;;;;;;37.08;11.18;;;15.00;95.70;;;;;;5015088;28;20058;-73
2021/05/14 09:20:52;;;;;;;42.30;13.57;;;15.10;95.50;;;;;;5028289;28;20144;-74
2021/05/14 09:23:21;;;;;;;45.13;14.20;;;15.00;95.40;;;;;;5032921;28;20100;-74
2021/05/14 09:26:10;;;;;;;37.50;12.05;;;14.90;95.40;;;;;;5033521;28;20037;-73
2021/05/14 09:28:40;;;;;;;40.65;13.15;;;14.80;95.40;;;;;;5035076;28;20033;-73
2021/05/14 09:31:10;;;;;;;38.55;11.73;;;14.80;95.60;;;;;;5034101;28;20470;-74
2021/05/14 09:33:38;;;;;;;35.38;12.65;;;14.80;95.60;;;;;;5034530;28;20021;-73
2021/05/14 09:36:12;;;;;;;32.97;11.27;;;14.80;95.60;;;;;;5034555;28;20055;-73
2021/05/14 09:38:46;;;;;;;29.63;10.00;;;14.80;95.50;;;;;;5034805;28;20045;-74
2021/05/14 09:41:34;;;;;;;29.27;9.90;;;15.00;95.50;;;;;;5032656;28;20036;-73
2021/05/14 09:44:14;;;;;;;32.50;10.50;;;15.10;95.30;;;;;;5034269;28;20028;-73
2021/05/14 09:46:46;;;;;;;35.00;10.82;;;15.20;95.30;;;;;;5034568;28;20040;-73
2021/05/14 09:49:17;;;;;;;31.77;11.65;;;15.20;95.00;;;;;;5032708;28;20025;-73
2021/05/14 09:51:54;;;;;;;35.38;11.38;;;15.30;95.00;;;;;;5034470;28;20033;-74
2021/05/14 09:54:29;;;;;;;37.58;12.18;;;15.40;94.90;;;;;;5033676;28;20052;-73
2021/05/14 09:57:32;;;;;;;41.83;13.05;;;15.40;94.70;;;;;;5034238;28;20450;-73
2021/05/14 10:00:03;;;;;;;43.85;13.60;;;15.30;94.50;;;;;;5034251;28;20037;-74
2021/05/14 10:02:34;;;;;;;36.42;13.02;;;15.20;94.60;;;;;;5033424;28;20032;-74
2021/05/14 10:05:03;;;;;;;38.58;13.80;;;15.20;94.40;;;;;;5034190;28;20064;-74
2021/05/14 10:07:29;;;;;;;38.17;12.85;;;15.20;94.40;;;;;;5031995;28;20647;-73
2021/05/14 10:09:59;;;;;;;28.10;10.77;;;15.30;94.50;;;;;;5032600;28;20025;-73
2021/05/14 10:12:25;;;;;;;36.10;11.93;;;15.30;94.40;;;;;;5033173;28;20071;-73
2021/05/14 10:14:51;;;;;;;29.35;10.75;;;15.40;94.00;;;;;;5033800;28;20026;-73
2021/05/14 10:17:17;;;;;;;37.15;12.15;;;15.40;94.50;;;;;;5033085;28;20520;-74
2021/05/14 10:19:45;;;;;;;30.02;10.95;;;15.30;94.20;;;;;;5033449;28;20037;-74
2021/05/14 10:22:13;;;;;;;30.15;10.40;;;15.40;94.30;;;;;;5033039;28;20033;-74
2021/05/14 10:24:41;;;;;;;29.30;10.20;;;15.40;94.00;;;;;;5033611;28;20022;-73
2021/05/14 10:27:38;;;;;;;26.20;10.98;;;15.40;94.10;;;;;;5033533;28;20080;-73
2021/05/14 10:30:04;;;;;;;29.88;10.88;;;15.50;94.10;;;;;;5031287;28;20068;-74
2021/05/14 10:32:51;;;;;;;32.72;10.82;;;15.60;94.00;;;;;;5032682;28;20246;-73
2021/05/14 10:35:23;;;;;;;26.13;9.80;;;15.60;93.50;;;;;;5032256;28;20040;-74
2021/05/14 10:38:05;;;;;;;28.40;10.52;;;15.60;93.60;;;;;;5033108;28;20042;-74
2021/05/14 10:40:34;;;;;;;26.42;10.13;;;15.60;93.60;;;;;;5032597;28;20556;-73
2021/05/14 10:43:03;;;;;;;26.08;9.48;;;15.60;93.70;;;;;;5031817;28;20105;-73
2021/05/14 10:45:45;;;;;;;27.27;9.57;;;15.60;93.90;;;;;;5032570;28;20021;-72
2021/05/14 10:48:18;;;;;;;31.40;11.18;;;15.80;93.80;;;;;;5032952;28;20021;-74
2021/05/14 10:50:52;;;;;;;38.53;11.88;;;15.80;93.80;;;;;;5033049;28;20029;-73
2021/05/14 10:53:31;;;;;;;32.78;11.38;;;16.00;93.80;;;;;;5032220;28;20025;-74
2021/05/14 10:56:17;;;;;;;33.35;11.85;;;16.20;93.20;;;;;;5033045;28;20048;-73
2021/05/14 10:58:51;;;;;;;34.60;12.88;;;16.20;93.10;;;;;;5031050;28;20027;-73
2021/05/14 11:01:27;;;;;;;33.67;10.65;;;16.20;93.50;;;;;;5032256;28;20036;-74
2021/05/14 11:03:53;;;;;;;32.60;11.15;;;16.30;93.50;;;;;;5032823;28;20037;-73
2021/05/14 11:06:19;;;;;;;34.85;11.55;;;16.30;93.60;;;;;;5031943;28;20017;-73
2021/05/14 11:09:12;;;;;;;31.48;12.48;;;16.30;93.50;;;;;;5032634;28;20029;-74
2021/05/14 11:12:01;;;;;;;29.30;10.77;;;16.40;93.40;;;;;;5032634;28;20045;-73
2021/05/14 11:14:43;;;;;;;29.35;11.02;;;16.40;93.40;;;;;;5030725;28;20025;-74
2021/05/14 11:17:14;;;;;;;31.40;10.43;;;16.50;93.40;;;;;;5032673;28;20025;-73
2021/05/14 11:19:53;;;;;;;27.23;9.38;;;16.60;93.40;;;;;;5032663;28;20021;-73
2021/05/14 11:22:26;;;;;;;29.63;10.80;;;16.70;93.40;;;;;;5032108;28;20021;-73
2021/05/14 11:24:54;;;;;;;26.80;10.70;;;16.90;93.40;;;;;;5032381;28;20025;-73
2021/05/14 11:27:23;;;;;;;36.08;11.00;;;17.00;93.20;;;;;;5031800;28;20473;-74
2021/05/14 11:29:53;;;;;;;28.67;11.57;;;17.10;93.00;;;;;;5026115;28;20036;-72
2021/05/14 11:32:28;;;;;;;31.08;12.20;;;17.20;92.50;;;;;;5015884;28;20029;-73
2021/05/14 11:35:13;;;;;;;28.63;11.13;;;17.20;92.50;;;;;;5031788;28;20067;-73
2021/05/14 11:37:58;;;;;;;26.77;10.05;;;17.00;92.80;;;;;;5031505;28;20492;-74
2021/05/14 11:40:30;;;;;;;25.48;10.98;;;17.10;93.00;;;;;;5030451;28;20028;-73
2021/05/14 11:43:01;;;;;;;21.58;9.48;;;17.20;92.90;;;;;;5032444;28;20026;-74
2021/05/14 11:45:32;;;;;;;24.10;9.73;;;17.40;93.00;;;;;;5030264;28;20026;-73
2021/05/14 11:48:08;;;;;;;23.02;10.57;;;17.60;92.70;;;;;;5030923;28;20385;-73
2021/05/14 11:50:37;;;;;;;20.45;9.95;;;17.70;92.60;;;;;;5031246;28;20025;-73
2021/05/14 11:53:05;;;;;;;20.17;10.82;;;17.90;92.40;;;;;;5031747;28;20033;-73
2021/05/14 11:55:33;;;;;;;16.73;9.35;;;17.90;92.50;;;;;;5030781;28;20143;-72
2021/05/14 11:57:59;;;;;;;20.15;9.52;;;17.90;92.40;;;;;;5030536;28;20021;-74
2021/05/14 12:00:28;;;;;;;17.25;9.57;;;17.90;92.50;;;;;;5031297;28;20017;-74
2021/05/14 12:02:56;;;;;;;18.98;9.38;;;17.90;92.30;;;;;;5030572;28;20038;-73
2021/05/14 12:05:24;;;;;;;17.63;8.55;;;18.00;92.50;;;;;;5030879;28;20378;-74
2021/05/14 12:07:49;;;;;;;19.98;9.32;;;18.10;92.30;;;;;;5031799;28;20104;-74
2021/05/14 12:10:17;;;;;;;15.35;8.20;;;18.20;92.10;;;;;;5031876;28;20110;-74
2021/05/14 12:12:45;;;;;;;15.40;8.38;;;18.20;91.80;;;;;;5033655;28;20052;-73
2021/05/14 12:15:25;;;;;;;19.42;8.73;;;18.20;91.60;;;;;;5035979;28;20025;-73
2021/05/14 12:18:01;;;;;;;14.43;7.97;;;18.20;92.10;;;;;;5034722;28;20171;-73
2021/05/14 12:20:29;;;;;;;14.00;7.15;;;18.30;92.10;;;;;;5050430;28;20272;-74
2021/05/14 12:22:58;;;;;;;14.25;7.65;;;18.30;92.20;;;;;;5035519;28;20385;-75
2021/05/14 12:25:25;;;;;;;13.43;7.28;;;18.30;91.60;;;;;;5034894;28;20032;-74
2021/05/14 12:27:50;;;;;;;12.75;7.70;;;18.40;91.90;;;;;;5035728;28;20075;-74
2021/05/14 12:30:17;;;;;;;11.45;6.70;;;18.40;91.10;;;;;;5035672;28;20017;-74
2021/05/14 12:32:57;;;;;;;11.60;6.10;;;18.20;90.90;;;;;;5033545;28;20428;-73
2021/05/14 12:35:23;;;;;;;11.63;6.53;;;18.20;91.60;;;;;;5034921;28;20461;-74
2021/05/14 12:38:07;;;;;;;10.70;6.28;;;18.20;91.20;;;;;;5035187;28;20045;-73